NORTHEAST SUFFOLK  -  Winter Weather Advisory Winter Weather Advisory     Winter Weather Advisory Winter Weather Advisory        NORTHERN NASSAU  -  Winter Weather Advisory Winter Weather Advisory        NORTHWEST SUFFOLK  -  Winter Weather Advisory Winter Weather Advisory     Winter Weather Advisory Winter Weather Advisory        SOUTHEAST SUFFOLK  -  Winter Weather Advisory Winter Weather Advisory     Winter Weather Advisory Winter Weather Advisory        SOUTHERN NASSAU  -  Winter Weather Advisory Winter Weather Advisory        SOUTHWEST SUFFOLK  -  Winter Weather Advisory Winter Weather Advisory     Winter Weather Advisory Winter Weather Advisory      

Active alerts

Northern Nassau
  Details for Northern Nassau Winter Weather Advisory
Southern Nassau
  Details for Southern Nassau Winter Weather Advisory
Northwest Suffolk
  Details for Northwest Suffolk Winter Weather Advisory  +1 additional alert
Southwest Suffolk
  Details for Southwest Suffolk Winter Weather Advisory  +1 additional alert
Northeast Suffolk
  Details for Northeast Suffolk Winter Weather Advisory  +1 additional alert
Southeast Suffolk
  Details for Southeast Suffolk Winter Weather Advisory  +1 additional alert


WXM80 ListenWXM80 Stop

You find our weather info also at:

UK Metoffice

WeatherCloud

Weather Underground

Northeastern Weather Network

AWEKAS

Citizen Weather Observer Program (CWOP)

HAMweather, WeatherForYou, PWS Weather


Weather Underground History page Text

Daily Summary for November 22, 2016 Units:  English    Metric   Both
« Previous Day
Next Day »
Daily Weekly Monthly Yearly Custom
  High: Low: Average:
Temperature: 43.8 °F 36.4 °F 39 °F
Dew Point: 28.6 °F 24.3 °F 26.3 °F
Humidity: 69 % 49 % 60 %
Wind Speed: 16.8 mph 2.1 mph 7.6 mph
Wind Gust: 29.9 mph - -
Wind:- - WNW
Pressure: 30.17 in 29.79 in -
Precipitation: 0.00 in    
Historical Graphs
 
 
Tabular Data for November 22, 2016
Time Temperature Dew Point Pressure Wind Wind Speed Wind Gust Humidity Rainfall Rate (Hourly)
00:00 38.6 °F 24.7 °F 29.80 in NNW 10.1 mph 20.7 mph 57 % 0.00 in
00:05 38.5 °F 25.0 °F 29.80 in SW 8.0 mph 21.9 mph 58 % 0.00 in
00:10 38.4 °F 24.9 °F 29.80 in West 8.6 mph 15.0 mph 58 % 0.00 in
00:15 38.4 °F 24.9 °F 29.80 in WNW 7.2 mph 13.8 mph 58 % 0.00 in
00:20 38.4 °F 25.7 °F 29.80 in West 4.6 mph 11.0 mph 60 % 0.00 in
00:25 38.3 °F 24.8 °F 29.79 in North 6.6 mph 19.6 mph 58 % 0.00 in
00:31 38.2 °F 24.3 °F 29.79 in WNW 10.4 mph 16.1 mph 57 % 0.00 in
00:36 38.2 °F 25.1 °F 29.80 in WNW 9.3 mph 17.0 mph 59 % 0.00 in
00:41 38.2 °F 24.7 °F 29.80 in NW 13.7 mph 21.9 mph 58 % 0.00 in
00:46 38.2 °F 24.7 °F 29.80 in NNW 11.4 mph 18.4 mph 58 % 0.00 in
00:51 38.2 °F 24.7 °F 29.80 in WNW 13.0 mph 21.9 mph 58 % 0.00 in
00:56 38.2 °F 25.1 °F 29.81 in SW 9.2 mph 15.0 mph 59 % 0.00 in
01:01 38.2 °F 24.7 °F 29.81 in WNW 8.4 mph 16.1 mph 58 % 0.00 in
01:06 38.2 °F 25.5 °F 29.80 in NW 11.8 mph 20.0 mph 60 % 0.00 in
01:11 38.3 °F 25.2 °F 29.80 in WSW 10.3 mph 27.6 mph 59 % 0.00 in
01:16 38.2 °F 24.7 °F 29.81 in South 9.3 mph 17.3 mph 58 % 0.00 in
01:22 38.2 °F 25.1 °F 29.81 in WNW 12.2 mph 19.6 mph 59 % 0.00 in
01:27 38.2 °F 24.7 °F 29.82 in West 8.9 mph 16.1 mph 58 % 0.00 in
01:32 38.3 °F 25.6 °F 29.82 in West 12.2 mph 18.0 mph 60 % 0.00 in
01:37 38.3 °F 24.8 °F 29.82 in West 10.4 mph 18.4 mph 58 % 0.00 in
01:42 38.3 °F 25.2 °F 29.82 in WNW 9.7 mph 19.6 mph 59 % 0.00 in
01:47 38.3 °F 25.2 °F 29.82 in WNW 8.8 mph 15.0 mph 59 % 0.00 in
01:52 38.3 °F 25.2 °F 29.82 in West 11.8 mph 19.6 mph 59 % 0.00 in
01:57 38.3 °F 24.8 °F 29.82 in WNW 9.4 mph 18.4 mph 58 % 0.00 in
02:02 38.3 °F 25.2 °F 29.82 in West 9.1 mph 18.4 mph 59 % 0.00 in
02:07 38.3 °F 25.6 °F 29.82 in NW 10.2 mph 15.0 mph 60 % 0.00 in
02:13 38.2 °F 24.7 °F 29.82 in WNW 9.2 mph 25.3 mph 58 % 0.00 in
02:18 38.1 °F 25.4 °F 29.83 in WNW 7.9 mph 12.7 mph 60 % 0.00 in
02:23 38.0 °F 25.3 °F 29.83 in WNW 10.4 mph 17.3 mph 60 % 0.00 in
02:28 38.0 °F 26.1 °F 29.82 in West 9.8 mph 15.0 mph 62 % 0.00 in
02:33 38.0 °F 26.1 °F 29.83 in NNW 11.0 mph 23.0 mph 62 % 0.00 in
02:38 38.0 °F 25.7 °F 29.83 in NW 11.0 mph 23.0 mph 61 % 0.00 in
02:48 38.0 °F 26.1 °F 29.83 in WNW 8.0 mph 22.0 mph 62 % 0.00 in
02:53 38.0 °F 26.1 °F 29.83 in West 5.0 mph 20.7 mph 62 % 0.00 in
02:59 38.0 °F 26.1 °F 29.83 in West 10.5 mph 23.0 mph 62 % 0.00 in
03:04 38.0 °F 25.7 °F 29.83 in West 7.9 mph 19.6 mph 61 % 0.00 in
03:09 38.0 °F 26.1 °F 29.83 in WSW 10.9 mph 10.9 mph 62 % 0.00 in
03:14 38.0 °F 26.5 °F 29.84 in NNW 10.2 mph 19.6 mph 63 % 0.00 in
03:19 37.9 °F 27.2 °F 29.83 in WNW 9.4 mph 17.3 mph 65 % 0.00 in
03:24 37.9 °F 27.5 °F 29.84 in WNW 8.6 mph 17.3 mph 66 % 0.00 in
03:29 37.9 °F 27.5 °F 29.84 in NW 7.3 mph 16.1 mph 66 % 0.00 in
03:34 37.8 °F 27.1 °F 29.84 in WNW 9.3 mph 16.1 mph 65 % 0.00 in
03:39 37.8 °F 26.7 °F 29.84 in WNW 9.1 mph 18.4 mph 64 % 0.00 in
03:50 37.7 °F 27.0 °F 29.86 in WNW 12.1 mph 24.0 mph 65 % 0.00 in
03:55 37.7 °F 27.0 °F 29.85 in NW 13.1 mph 26.5 mph 65 % 0.00 in
04:00 37.6 °F 27.6 °F 29.86 in NW 10.6 mph 19.6 mph 67 % 0.00 in
04:05 37.5 °F 27.5 °F 29.86 in WNW 7.3 mph 13.8 mph 67 % 0.00 in
04:10 37.5 °F 27.9 °F 29.86 in WNW 9.0 mph 22.0 mph 68 % 0.00 in
04:15 37.5 °F 28.2 °F 29.86 in WNW 9.0 mph 21.0 mph 69 % 0.00 in
04:20 37.4 °F 28.2 °F 29.87 in WNW 10.0 mph 20.0 mph 69 % 0.00 in
04:25 37.4 °F 27.8 °F 29.87 in WNW 10.0 mph 18.0 mph 68 % 0.00 in
04:30 37.4 °F 28.2 °F 29.87 in NW 13.0 mph 25.0 mph 69 % 0.00 in
04:35 37.4 °F 27.4 °F 29.87 in NNW 6.0 mph 16.0 mph 67 % 0.00 in
04:40 37.3 °F 27.7 °F 29.87 in West 10.7 mph 15.0 mph 68 % 0.00 in
04:45 37.3 °F 27.3 °F 29.88 in WNW 10.0 mph 22.0 mph 67 % 0.00 in
04:50 37.3 °F 26.9 °F 29.87 in WNW 12.0 mph 20.0 mph 66 % 0.00 in
04:55 37.1 °F 27.2 °F 29.87 in WNW 8.0 mph 21.0 mph 67 % 0.00 in
05:00 37.0 °F 27.1 °F 29.87 in NNW 10.8 mph 23.0 mph 67 % 0.00 in
05:05 36.9 °F 26.6 °F 29.87 in NW 7.3 mph 17.3 mph 66 % 0.00 in
05:10 36.8 °F 27.6 °F 29.87 in WSW 8.8 mph 17.3 mph 69 % 0.00 in
05:15 36.8 °F 27.2 °F 29.87 in WNW 7.7 mph 13.8 mph 68 % 0.00 in
05:20 36.8 °F 26.9 °F 29.87 in NW 5.1 mph 11.5 mph 67 % 0.00 in
05:26 36.8 °F 26.9 °F 29.87 in WNW 8.6 mph 11.5 mph 67 % 0.00 in
05:31 36.7 °F 26.4 °F 29.88 in SW 7.9 mph 15.0 mph 66 % 0.00 in
05:36 36.7 °F 26.4 °F 29.88 in WSW 11.1 mph 22.0 mph 66 % 0.00 in
05:41 36.8 °F 26.5 °F 29.89 in WNW 8.3 mph 12.7 mph 66 % 0.00 in
05:46 36.8 °F 26.5 °F 29.88 in SW 5.6 mph 14.0 mph 66 % 0.00 in
05:51 36.7 °F 25.7 °F 29.89 in NNW 9.2 mph 19.6 mph 64 % 0.00 in
05:56 36.8 °F 25.8 °F 29.90 in WNW 11.0 mph 21.9 mph 64 % 0.00 in
06:01 36.8 °F 26.1 °F 29.90 in West 8.9 mph 13.8 mph 65 % 0.00 in
06:06 36.8 °F 25.8 °F 29.90 in NW 5.5 mph 8.1 mph 64 % 0.00 in
06:11 36.8 °F 26.1 °F 29.90 in NW 8.3 mph 20.7 mph 65 % 0.00 in
06:17 36.7 °F 24.9 °F 29.90 in WNW 10.1 mph 26.5 mph 62 % 0.00 in
06:22 36.6 °F 25.2 °F 29.89 in West 16.8 mph 24.0 mph 63 % 0.00 in
06:27 36.6 °F 25.6 °F 29.87 in West 10.8 mph 24.2 mph 64 % 0.00 in
06:32 36.5 °F 24.7 °F 29.88 in West 9.1 mph 19.0 mph 62 % 0.00 in
06:37 36.4 °F 25.0 °F 29.89 in WNW 11.7 mph 23.0 mph 63 % 0.00 in
06:42 36.4 °F 25.7 °F 29.89 in WNW 11.7 mph 18.4 mph 65 % 0.00 in
06:47 36.5 °F 25.5 °F 29.90 in North 7.5 mph 15.0 mph 64 % 0.00 in
06:52 36.5 °F 25.5 °F 29.90 in WNW 11.6 mph 21.0 mph 64 % 0.00 in
06:57 36.5 °F 25.8 °F 29.91 in West 10.7 mph 25.3 mph 65 % 0.00 in
07:02 36.6 °F 26.3 °F 29.90 in West 8.5 mph 18.4 mph 66 % 0.00 in
07:08 36.5 °F 25.8 °F 29.91 in WNW 10.3 mph 16.1 mph 65 % 0.00 in
07:13 36.6 °F 25.9 °F 29.91 in WNW 9.2 mph 29.9 mph 65 % 0.00 in
07:18 36.6 °F 25.9 °F 29.91 in West 10.1 mph 14.0 mph 65 % 0.00 in
07:23 36.6 °F 25.9 °F 29.92 in WNW 8.7 mph 16.1 mph 65 % 0.00 in
07:28 36.6 °F 25.6 °F 29.92 in WSW 8.4 mph 19.6 mph 64 % 0.00 in
07:33 36.7 °F 26.0 °F 29.91 in West 14.0 mph 24.2 mph 65 % 0.00 in
07:38 36.7 °F 25.7 °F 29.91 in West 10.5 mph 20.7 mph 64 % 0.00 in
07:43 36.8 °F 26.1 °F 29.92 in SW 8.1 mph 16.1 mph 65 % 0.00 in
07:48 36.8 °F 25.4 °F 29.91 in West 7.4 mph 21.9 mph 63 % 0.00 in
07:53 36.9 °F 26.2 °F 29.91 in WNW 9.3 mph 19.0 mph 65 % 0.00 in
07:59 37.0 °F 25.2 °F 29.91 in WNW 7.1 mph 22.0 mph 62 % 0.00 in
08:04 37.0 °F 25.6 °F 29.92 in WSW 4.6 mph 16.1 mph 63 % 0.00 in
08:09 37.1 °F 25.7 °F 29.93 in NW 8.5 mph 12.7 mph 63 % 0.00 in
08:14 37.2 °F 25.4 °F 29.93 in SW 12.2 mph 15.0 mph 62 % 0.00 in
08:19 37.3 °F 25.1 °F 29.93 in NNW 7.7 mph 11.5 mph 61 % 0.00 in
08:24 37.4 °F 25.6 °F 29.93 in WNW 7.5 mph 16.1 mph 62 % 0.00 in
08:29 37.5 °F 25.3 °F 29.94 in WNW 9.6 mph 19.6 mph 61 % 0.00 in
08:34 37.7 °F 25.5 °F 29.94 in NNE 7.7 mph 17.3 mph 61 % 0.00 in
08:39 37.9 °F 25.6 °F 29.95 in WNW 9.7 mph 15.0 mph 61 % 0.00 in
08:44 37.9 °F 24.8 °F 29.95 in NW 12.0 mph 26.5 mph 59 % 0.00 in
08:50 38.0 °F 26.1 °F 29.96 in SW 7.2 mph 19.0 mph 62 % 0.00 in
08:55 38.0 °F 24.9 °F 29.96 in NW 10.4 mph 19.6 mph 59 % 0.00 in
09:00 38.3 °F 25.2 °F 29.96 in WNW 11.5 mph 16.1 mph 59 % 0.00 in
09:05 38.4 °F 24.9 °F 29.96 in WNW 15.1 mph 26.0 mph 58 % 0.00 in
09:10 38.6 °F 25.1 °F 29.96 in NNW 7.2 mph 11.5 mph 58 % 0.00 in
09:15 38.7 °F 26.0 °F 29.97 in NNW 7.8 mph 13.8 mph 60 % 0.00 in
09:25 38.9 °F 25.4 °F 29.97 in WNW 9.0 mph 24.0 mph 58 % 0.00 in
09:30 39.1 °F 26.0 °F 29.97 in WNW 10.0 mph 21.0 mph 59 % 0.00 in
09:35 39.3 °F 26.6 °F 29.98 in WNW 7.0 mph 18.0 mph 60 % 0.00 in
09:40 39.5 °F 25.5 °F 29.98 in NW 8.0 mph 18.0 mph 57 % 0.00 in
09:45 39.6 °F 26.0 °F 29.98 in NW 10.0 mph 21.0 mph 58 % 0.00 in
09:50 39.7 °F 26.1 °F 29.98 in NW 6.0 mph 21.0 mph 58 % 0.00 in
09:55 39.9 °F 25.9 °F 29.98 in NW 7.0 mph 18.0 mph 57 % 0.00 in
10:00 40.2 °F 26.2 °F 29.98 in NNW 6.9 mph 15.0 mph 57 % 0.00 in
10:05 40.4 °F 25.9 °F 29.98 in West 7.8 mph 16.1 mph 56 % 0.00 in
10:10 40.7 °F 26.2 °F 29.98 in WNW 9.1 mph 15.0 mph 56 % 0.00 in
10:15 40.7 °F 25.8 °F 29.98 in NW 7.1 mph 17.3 mph 55 % 0.00 in
10:20 40.7 °F 25.8 °F 29.98 in NNW 8.0 mph 13.8 mph 55 % 0.00 in
10:25 40.8 °F 25.9 °F 29.98 in NW 6.3 mph 13.8 mph 55 % 0.00 in
10:31 40.8 °F 25.9 °F 29.98 in North 5.3 mph 15.0 mph 55 % 0.00 in
10:41 40.9 °F 26.0 °F 29.98 in NW 7.4 mph 13.8 mph 55 % 0.00 in
10:46 41.0 °F 26.1 °F 29.98 in West 10.5 mph 16.1 mph 55 % 0.00 in
10:51 40.9 °F 26.4 °F 29.98 in NNW 8.5 mph 12.7 mph 56 % 0.00 in
10:56 41.0 °F 26.5 °F 29.98 in WNW 7.6 mph 16.1 mph 56 % 0.00 in
11:01 40.9 °F 25.5 °F 29.98 in NNW 8.4 mph 15.0 mph 54 % 0.00 in
11:06 40.9 °F 26.0 °F 29.98 in North 4.6 mph 11.5 mph 55 % 0.00 in
11:11 40.9 °F 26.0 °F 29.97 in NW 4.9 mph 13.0 mph 55 % 0.00 in
11:16 41.0 °F 26.1 °F 29.97 in WNW 5.8 mph 12.7 mph 55 % 0.00 in
11:22 41.0 °F 25.6 °F 29.98 in NNW 6.6 mph 16.1 mph 54 % 0.00 in
11:27 41.0 °F 25.6 °F 29.98 in North 7.7 mph 11.5 mph 54 % 0.00 in
11:32 41.1 °F 26.1 °F 29.98 in WSW 9.6 mph 13.8 mph 55 % 0.00 in
11:37 41.2 °F 26.2 °F 29.98 in NW 4.3 mph 17.3 mph 55 % 0.00 in
11:42 41.3 °F 25.9 °F 29.97 in West 7.9 mph 15.0 mph 54 % 0.00 in
11:47 41.4 °F 26.4 °F 29.97 in WSW 3.9 mph 16.1 mph 55 % 0.00 in
11:52 41.6 °F 27.1 °F 29.98 in West 10.1 mph 20.7 mph 56 % 0.00 in
11:57 41.8 °F 26.8 °F 29.98 in NW 7.5 mph 18.4 mph 55 % 0.00 in
12:02 42.0 °F 27.0 °F 29.98 in NW 10.7 mph 13.0 mph 55 % 0.00 in
12:07 42.1 °F 26.2 °F 29.97 in WNW 9.5 mph 19.6 mph 53 % 0.00 in
12:13 42.4 °F 27.8 °F 29.98 in WNW 6.5 mph 11.5 mph 56 % 0.00 in
12:18 42.6 °F 26.6 °F 29.98 in NW 6.8 mph 13.8 mph 53 % 0.00 in
12:23 42.8 °F 26.8 °F 29.98 in WNW 5.4 mph 12.7 mph 53 % 0.00 in
12:28 43.0 °F 27.0 °F 29.98 in NW 5.0 mph 11.5 mph 53 % 0.00 in
12:33 43.0 °F 26.6 °F 29.98 in West 7.0 mph 16.1 mph 52 % 0.00 in
12:38 43.0 °F 26.1 °F 29.98 in WNW 4.8 mph 19.6 mph 51 % 0.00 in
12:43 42.9 °F 26.0 °F 29.99 in NW 7.5 mph 14.0 mph 51 % 0.00 in
12:48 42.9 °F 25.5 °F 29.99 in NW 5.2 mph 7.0 mph 50 % 0.00 in
12:53 43.1 °F 26.7 °F 29.99 in NNW 5.7 mph 18.4 mph 52 % 0.00 in
12:58 43.2 °F 26.3 °F 29.99 in WNW 6.4 mph 12.7 mph 51 % 0.00 in
13:04 43.3 °F 26.4 °F 29.99 in WNW 7.0 mph 11.5 mph 51 % 0.00 in
13:09 43.3 °F 25.4 °F 29.99 in NNW 7.6 mph 19.6 mph 49 % 0.00 in
13:14 43.4 °F 26.0 °F 29.99 in WNW 10.4 mph 18.4 mph 50 % 0.00 in
13:19 43.4 °F 26.5 °F 29.99 in NW 3.9 mph 12.7 mph 51 % 0.00 in
13:24 43.5 °F 27.0 °F 29.99 in NW 4.5 mph 9.2 mph 52 % 0.00 in
13:29 43.6 °F 27.1 °F 29.99 in WNW 2.9 mph 9.2 mph 52 % 0.00 in
13:34 43.8 °F 26.3 °F 29.99 in NW 7.8 mph 13.8 mph 50 % 0.00 in
13:39 43.8 °F 27.3 °F 29.99 in WNW 7.3 mph 13.0 mph 52 % 0.00 in
13:44 43.8 °F 26.8 °F 29.99 in WNW 6.6 mph 18.4 mph 51 % 0.00 in
13:49 43.7 °F 26.3 °F 30.00 in WNW 8.9 mph 15.0 mph 50 % 0.00 in
13:54 43.5 °F 26.6 °F 30.00 in WNW 7.6 mph 12.0 mph 51 % 0.00 in
13:59 43.4 °F 26.9 °F 30.00 in NNW 7.8 mph 13.8 mph 52 % 0.00 in
14:04 43.1 °F 26.7 °F 30.00 in NW 5.9 mph 11.5 mph 52 % 0.00 in
14:10 42.9 °F 26.0 °F 30.00 in WNW 3.4 mph 11.0 mph 51 % 0.00 in
14:15 42.7 °F 26.3 °F 30.00 in NW 4.6 mph 12.7 mph 52 % 0.00 in
14:20 42.6 °F 27.1 °F 30.01 in NNW 5.0 mph 11.5 mph 54 % 0.00 in
14:25 42.5 °F 26.6 °F 30.01 in NW 6.0 mph 8.1 mph 53 % 0.00 in
14:30 42.4 °F 26.9 °F 30.01 in NW 8.0 mph 14.0 mph 54 % 0.00 in
14:35 42.3 °F 26.4 °F 30.01 in NNW 6.0 mph 17.0 mph 53 % 0.00 in
14:40 42.2 °F 26.3 °F 30.01 in NW 5.0 mph 10.0 mph 53 % 0.00 in
14:45 42.1 °F 26.2 °F 30.01 in NW 5.0 mph 14.0 mph 53 % 0.00 in
14:50 42.0 °F 26.1 °F 30.01 in WNW 6.6 mph 11.5 mph 53 % 0.00 in
14:55 41.9 °F 26.0 °F 30.02 in NW 5.0 mph 13.0 mph 53 % 0.00 in
15:00 41.9 °F 26.0 °F 30.02 in NNE 6.4 mph 19.6 mph 53 % 0.00 in
15:05 41.8 °F 25.9 °F 30.02 in WNW 8.3 mph 15.0 mph 53 % 0.00 in
15:10 41.8 °F 25.9 °F 30.02 in North 5.1 mph 8.1 mph 53 % 0.00 in
15:15 41.6 °F 25.7 °F 30.03 in NW 6.4 mph 12.7 mph 53 % 0.00 in
15:20 41.5 °F 26.1 °F 30.03 in WNW 8.8 mph 13.8 mph 54 % 0.00 in
15:25 41.5 °F 26.1 °F 30.03 in NW 8.9 mph 12.7 mph 54 % 0.00 in
15:31 41.4 °F 26.0 °F 30.03 in WNW 8.1 mph 15.0 mph 54 % 0.00 in
15:36 41.3 °F 25.4 °F 30.03 in NNW 6.9 mph 13.0 mph 53 % 0.00 in
15:41 41.2 °F 25.3 °F 30.03 in WNW 8.3 mph 11.5 mph 53 % 0.00 in
15:46 41.2 °F 25.8 °F 30.03 in NW 6.5 mph 18.4 mph 54 % 0.00 in
15:51 41.1 °F 26.1 °F 30.03 in North 6.1 mph 10.4 mph 55 % 0.00 in
15:56 41.1 °F 26.1 °F 30.03 in NW 5.3 mph 16.1 mph 55 % 0.00 in
16:01 41.0 °F 26.1 °F 30.04 in WNW 9.0 mph 16.1 mph 55 % 0.00 in
16:06 41.0 °F 26.1 °F 30.04 in NNW 5.7 mph 10.4 mph 55 % 0.00 in
16:11 40.9 °F 26.0 °F 30.04 in WNW 8.9 mph 12.7 mph 55 % 0.00 in
16:16 40.8 °F 26.3 °F 30.05 in WNW 5.9 mph 11.5 mph 56 % 0.00 in
16:22 40.8 °F 25.9 °F 30.05 in NW 6.4 mph 17.3 mph 55 % 0.00 in
16:27 40.7 °F 25.8 °F 30.05 in NW 4.9 mph 16.1 mph 55 % 0.00 in
16:32 40.6 °F 27.0 °F 30.05 in NW 6.7 mph 9.2 mph 58 % 0.00 in
16:37 40.6 °F 27.0 °F 30.05 in WSW 5.9 mph 15.0 mph 58 % 0.00 in
16:42 40.5 °F 26.9 °F 30.05 in WSW 6.8 mph 13.8 mph 58 % 0.00 in
16:47 40.4 °F 26.4 °F 30.06 in NNW 5.1 mph 11.5 mph 57 % 0.00 in
16:52 40.3 °F 26.3 °F 30.06 in NW 8.3 mph 13.8 mph 57 % 0.00 in
16:57 40.2 °F 26.6 °F 30.07 in WNW 7.4 mph 13.8 mph 58 % 0.00 in
17:02 40.1 °F 26.5 °F 30.07 in WNW 4.2 mph 10.0 mph 58 % 0.00 in
17:07 40.0 °F 26.4 °F 30.07 in NNW 8.8 mph 19.6 mph 58 % 0.00 in
17:12 39.9 °F 26.7 °F 30.08 in NNW 8.3 mph 13.8 mph 59 % 0.00 in
17:18 39.8 °F 26.6 °F 30.08 in West 5.5 mph 11.5 mph 59 % 0.00 in
17:23 39.7 °F 26.1 °F 30.08 in NW 8.2 mph 16.1 mph 58 % 0.00 in
17:28 39.6 °F 26.8 °F 30.07 in NNW 8.1 mph 11.5 mph 60 % 0.00 in
17:33 39.5 °F 25.9 °F 30.08 in NW 6.0 mph 17.3 mph 58 % 0.00 in
17:38 39.4 °F 26.7 °F 30.08 in WNW 9.1 mph 18.4 mph 60 % 0.00 in
17:43 39.4 °F 26.7 °F 30.09 in West 12.3 mph 19.6 mph 60 % 0.00 in
17:48 39.3 °F 26.6 °F 30.09 in WNW 8.8 mph 15.0 mph 60 % 0.00 in
17:53 39.2 °F 26.5 °F 30.10 in West 7.3 mph 16.1 mph 60 % 0.00 in
17:58 39.2 °F 26.9 °F 30.10 in NW 10.1 mph 15.0 mph 61 % 0.00 in
18:03 39.0 °F 26.3 °F 30.10 in WNW 9.1 mph 16.1 mph 60 % 0.00 in
18:09 39.0 °F 26.7 °F 30.10 in WNW 5.6 mph 23.0 mph 61 % 0.00 in
18:14 38.9 °F 26.6 °F 30.10 in NW 8.9 mph 17.3 mph 61 % 0.00 in
18:19 38.8 °F 26.5 °F 30.11 in NW 8.4 mph 16.1 mph 61 % 0.00 in
18:24 38.7 °F 27.2 °F 30.11 in WNW 7.3 mph 12.7 mph 63 % 0.00 in
18:29 38.6 °F 26.3 °F 30.11 in NNW 6.9 mph 11.5 mph 61 % 0.00 in
18:34 38.5 °F 27.0 °F 30.11 in West 3.5 mph 8.1 mph 63 % 0.00 in
18:39 38.3 °F 26.0 °F 30.11 in West 7.1 mph 16.1 mph 61 % 0.00 in
18:44 38.2 °F 26.3 °F 30.11 in WNW 6.9 mph 11.5 mph 62 % 0.00 in
18:49 38.1 °F 26.2 °F 30.12 in WNW 7.5 mph 17.3 mph 62 % 0.00 in
18:54 37.9 °F 26.0 °F 30.12 in NNW 5.8 mph 10.4 mph 62 % 0.00 in
19:00 37.9 °F 26.0 °F 30.12 in NW 6.4 mph 11.5 mph 62 % 0.00 in
19:05 37.7 °F 25.8 °F 30.12 in WNW 10.2 mph 13.0 mph 62 % 0.00 in
19:10 37.7 °F 26.2 °F 30.13 in WNW 8.2 mph 16.1 mph 63 % 0.00 in
19:15 37.6 °F 25.7 °F 30.13 in NW 5.9 mph 18.4 mph 62 % 0.00 in
19:20 37.5 °F 25.7 °F 30.13 in WNW 8.0 mph 16.0 mph 62 % 0.00 in
19:25 37.5 °F 25.7 °F 30.13 in NW 3.3 mph 9.0 mph 62 % 0.00 in
19:30 37.4 °F 25.9 °F 30.14 in WNW 7.6 mph 12.7 mph 63 % 0.00 in
19:35 37.4 °F 25.9 °F 30.14 in WNW 7.0 mph 14.0 mph 63 % 0.00 in
19:40 37.3 °F 25.8 °F 30.14 in WNW 7.4 mph 13.0 mph 63 % 0.00 in
19:45 37.3 °F 25.5 °F 30.14 in NW 7.0 mph 20.0 mph 62 % 0.00 in
19:50 37.2 °F 25.8 °F 30.14 in NW 3.0 mph 12.0 mph 63 % 0.00 in
19:55 37.1 °F 25.7 °F 30.14 in West 5.6 mph 13.8 mph 63 % 0.00 in
20:00 37.1 °F 26.0 °F 30.14 in NW 7.2 mph 9.2 mph 64 % 0.00 in
20:05 37.1 °F 26.4 °F 30.15 in WNW 5.5 mph 11.5 mph 65 % 0.00 in
20:10 37.1 °F 26.0 °F 30.15 in NW 8.6 mph 14.0 mph 64 % 0.00 in
20:15 37.0 °F 25.9 °F 30.15 in NNE 5.7 mph 11.5 mph 64 % 0.00 in
20:20 37.1 °F 26.0 °F 30.15 in NNW 7.1 mph 15.0 mph 64 % 0.00 in
20:25 37.1 °F 26.8 °F 30.15 in NW 3.8 mph 10.0 mph 66 % 0.00 in
20:31 37.2 °F 26.5 °F 30.15 in NW 6.2 mph 11.5 mph 65 % 0.00 in
20:36 37.3 °F 26.2 °F 30.15 in NW 5.0 mph 8.1 mph 64 % 0.00 in
20:41 37.3 °F 26.2 °F 30.15 in West 6.9 mph 10.4 mph 64 % 0.00 in
20:46 37.4 °F 26.7 °F 30.15 in WNW 6.3 mph 10.4 mph 65 % 0.00 in
20:51 37.4 °F 26.3 °F 30.15 in NNW 6.3 mph 12.7 mph 64 % 0.00 in
20:56 37.5 °F 26.8 °F 30.15 in WNW 6.7 mph 11.5 mph 65 % 0.00 in
21:01 37.5 °F 26.8 °F 30.15 in WNW 5.7 mph 10.4 mph 65 % 0.00 in
21:06 37.6 °F 26.5 °F 30.16 in WNW 4.9 mph 11.5 mph 64 % 0.00 in
21:11 37.7 °F 27.0 °F 30.15 in NNW 3.4 mph 4.6 mph 65 % 0.00 in
21:16 37.7 °F 26.6 °F 30.15 in WSW 5.1 mph 9.0 mph 64 % 0.00 in
21:22 37.7 °F 26.6 °F 30.15 in WNW 6.1 mph 9.2 mph 64 % 0.00 in
21:27 37.7 °F 27.0 °F 30.16 in NNW 4.1 mph 11.5 mph 65 % 0.00 in
21:32 37.8 °F 27.1 °F 30.15 in WNW 2.9 mph 5.8 mph 65 % 0.00 in
21:37 37.8 °F 27.1 °F 30.16 in NW 5.2 mph 11.5 mph 65 % 0.00 in
21:42 37.8 °F 27.1 °F 30.16 in NW 7.4 mph 12.7 mph 65 % 0.00 in
21:47 37.9 °F 27.2 °F 30.15 in WNW 3.6 mph 10.4 mph 65 % 0.00 in
21:52 37.9 °F 27.2 °F 30.16 in North 6.1 mph 15.0 mph 65 % 0.00 in
21:57 37.9 °F 27.2 °F 30.16 in NNW 7.5 mph 11.5 mph 65 % 0.00 in
22:07 37.9 °F 27.5 °F 30.16 in NW 2.4 mph 6.9 mph 66 % 0.00 in
22:12 38.0 °F 27.3 °F 30.16 in NW 6.5 mph 15.0 mph 65 % 0.00 in
22:18 38.0 °F 27.3 °F 30.16 in NW 4.0 mph 11.5 mph 65 % 0.00 in
22:23 38.0 °F 27.6 °F 30.16 in WNW 3.1 mph 5.8 mph 66 % 0.00 in
22:28 38.0 °F 27.6 °F 30.16 in NNW 5.4 mph 12.7 mph 66 % 0.00 in
22:33 38.1 °F 27.7 °F 30.16 in WNW 5.5 mph 10.4 mph 66 % 0.00 in
22:38 38.1 °F 27.7 °F 30.16 in NW 2.1 mph 5.8 mph 66 % 0.00 in
22:43 38.1 °F 27.7 °F 30.16 in WNW 3.7 mph 11.5 mph 66 % 0.00 in
22:48 38.1 °F 28.1 °F 30.16 in WNW 3.5 mph 6.0 mph 67 % 0.00 in
22:50 38.1 °F 27.7 °F 30.16 in WNW 3.8 mph 9.2 mph 66 % 0.00 in
22:55 38.2 °F 27.8 °F 30.16 in NW 5.1 mph 11.5 mph 66 % 0.00 in
22:56 38.2 °F 27.8 °F 30.16 in NW 5.5 mph 14.0 mph 66 % 0.00 in
23:01 38.2 °F 27.8 °F 30.17 in NW 5.5 mph 9.0 mph 66 % 0.00 in
23:06 38.2 °F 27.8 °F 30.16 in WNW 3.2 mph 3.5 mph 66 % 0.00 in
23:11 38.2 °F 27.8 °F 30.17 in WNW 5.0 mph 10.4 mph 66 % 0.00 in
23:16 38.3 °F 27.9 °F 30.16 in West 6.1 mph 8.0 mph 66 % 0.00 in
23:21 38.3 °F 27.9 °F 30.16 in WNW 4.7 mph 10.4 mph 66 % 0.00 in
23:26 38.3 °F 27.9 °F 30.16 in NW 5.0 mph 12.7 mph 66 % 0.00 in
23:27 38.4 °F 28.0 °F 30.16 in NNW 4.9 mph 10.4 mph 66 % 0.00 in
23:32 38.4 °F 28.4 °F 30.16 in WNW 2.8 mph 7.0 mph 67 % 0.00 in
23:37 38.4 °F 28.4 °F 30.16 in WNW 6.1 mph 11.5 mph 67 % 0.00 in
23:42 38.4 °F 28.0 °F 30.16 in NW 7.0 mph 12.7 mph 66 % 0.00 in
23:48 38.4 °F 28.4 °F 30.16 in North 9.0 mph 15.0 mph 67 % 0.00 in
23:53 38.5 °F 28.1 °F 30.16 in NW 5.1 mph 8.1 mph 66 % 0.00 in
23:58 38.6 °F 28.6 °F 30.16 in NNW 4.7 mph 13.0 mph 67 % 0.00 in
Crab Meadow Weather
Compliments of Weather Underground - 3 mb

Script developed by  Jim McMurry - jmcmurry@mwt.net Adapted for the template by  Wim van der Kuil - Leuven-Template.eu

Weather Terms: Funnel Cloud - A rotating column of air, extending from a towering cumulus or cumulonimbus cloud, that is not in contact with the ground.